createdAt,value
2022-11-09T06:14:06.317Z,966.70
2022-11-09T06:15:07.034Z,966.66
2022-11-09T06:16:06.978Z,966.67
2022-11-09T06:17:06.735Z,966.63
2022-11-09T06:18:06.451Z,966.63
2022-11-09T06:19:06.437Z,966.60
2022-11-09T06:20:06.416Z,966.59
2022-11-09T06:21:06.438Z,966.62
2022-11-09T06:22:06.393Z,966.53
2022-11-09T06:23:06.380Z,966.58
2022-11-09T06:24:06.383Z,966.48
2022-11-09T06:25:06.350Z,966.49
2022-11-09T06:26:06.391Z,966.61
2022-11-09T06:27:06.344Z,966.54
2022-11-09T06:28:06.342Z,966.68
2022-11-09T06:29:06.345Z,966.61
2022-11-09T06:30:06.315Z,966.62
2022-11-09T06:31:06.318Z,966.61
2022-11-09T06:32:06.316Z,966.59
2022-11-09T06:33:06.254Z,966.52
2022-11-09T06:34:06.258Z,966.66
2022-11-09T06:35:06.221Z,966.58
2022-11-09T06:36:06.220Z,966.64
2022-11-09T06:37:06.439Z,966.89
2022-11-09T06:38:06.202Z,966.66
2022-11-09T06:39:06.393Z,966.70
2022-11-09T06:40:06.190Z,966.65
2022-11-09T06:41:06.170Z,966.72
2022-11-09T06:42:06.184Z,966.72
2022-11-09T06:43:06.169Z,966.80
2022-11-09T06:44:06.128Z,966.70
2022-11-09T06:45:06.119Z,966.78
2022-11-09T06:46:06.118Z,966.66
2022-11-09T06:47:06.094Z,966.72
2022-11-09T06:48:06.126Z,966.67
2022-11-09T06:49:06.084Z,966.68
2022-11-09T06:50:06.060Z,966.73
2022-11-09T06:51:06.043Z,966.85
2022-11-09T06:52:06.031Z,966.76
2022-11-09T06:53:06.052Z,966.70
2022-11-09T06:54:06.030Z,966.78
2022-11-09T06:55:05.983Z,966.75
2022-11-09T06:56:05.984Z,966.73
2022-11-09T06:57:05.989Z,966.69
2022-11-09T06:58:05.953Z,966.73
2022-11-09T06:59:05.967Z,966.84
2022-11-09T07:00:05.937Z,966.73
2022-11-09T07:01:05.972Z,966.65
2022-11-09T07:02:05.986Z,966.59
2022-11-09T07:03:05.906Z,966.72
2022-11-09T07:04:05.903Z,966.76
2022-11-09T07:05:05.880Z,966.65
2022-11-09T07:06:05.881Z,966.65
2022-11-09T07:07:05.921Z,966.66
2022-11-09T07:08:05.844Z,966.77
2022-11-09T07:09:05.871Z,966.67
2022-11-09T07:10:05.826Z,966.76
2022-11-09T07:11:05.814Z,966.77
2022-11-09T07:12:05.823Z,966.87
2022-11-09T07:13:05.807Z,966.87
2022-11-09T07:14:05.836Z,966.79
2022-11-09T07:15:05.769Z,966.81
2022-11-09T07:16:05.747Z,966.77
2022-11-09T07:17:05.721Z,966.88
2022-11-09T07:18:05.731Z,966.81
2022-11-09T07:19:08.348Z,966.82
2022-11-09T07:20:06.525Z,966.81
2022-11-09T07:21:08.804Z,966.89
2022-11-09T07:22:08.670Z,966.94
2022-11-09T07:23:06.474Z,966.84
2022-11-09T07:24:06.522Z,966.86
2022-11-09T07:25:06.400Z,966.85
2022-11-09T07:26:06.925Z,966.88
2022-11-09T07:27:06.129Z,966.84
2022-11-09T07:28:06.346Z,966.82
2022-11-09T07:29:06.322Z,966.83
2022-11-09T07:30:06.290Z,966.84
2022-11-09T07:31:06.395Z,966.86
2022-11-09T07:32:05.999Z,966.83
2022-11-09T07:33:10.253Z,966.83
2022-11-09T07:34:07.133Z,966.85
2022-11-09T07:35:06.060Z,966.88
2022-11-09T07:36:06.191Z,966.84
2022-11-09T07:37:05.759Z,966.84
2022-11-09T07:38:06.116Z,966.90
2022-11-09T07:39:06.162Z,966.83
2022-11-09T07:40:06.039Z,966.92
2022-11-09T07:41:06.099Z,966.93
2022-11-09T07:42:05.934Z,966.93
2022-11-09T07:43:05.812Z,966.80
2022-11-09T07:44:05.916Z,966.84
2022-11-09T07:45:06.005Z,966.97
2022-11-09T07:46:05.886Z,966.96
2022-11-09T07:47:05.783Z,966.92
2022-11-09T07:48:06.016Z,966.84
2022-11-09T07:49:06.052Z,966.88
2022-11-09T07:50:05.864Z,966.93
2022-11-09T07:51:05.866Z,966.86
2022-11-09T07:52:05.758Z,966.86
2022-11-09T07:53:05.955Z,966.88
2022-11-09T07:54:06.204Z,966.94
